createdAt,value
2023-01-21T00:01:34.001Z,14.15
2023-01-21T00:04:38.195Z,12.77
2023-01-21T00:07:40.491Z,12.98
2023-01-21T00:10:43.096Z,13.13
2023-01-21T00:13:45.629Z,12.70
2023-01-21T00:16:48.237Z,13.10
2023-01-21T00:19:50.603Z,12.80
2023-01-21T00:22:55.828Z,13.60
2023-01-21T00:26:02.577Z,12.27
2023-01-21T00:29:05.284Z,13.02
2023-01-21T00:32:07.651Z,13.25
2023-01-21T00:35:10.325Z,13.05
2023-01-21T00:38:12.652Z,11.70
2023-01-21T00:41:16.323Z,14.10
2023-01-21T00:44:19.322Z,15.00
2023-01-21T00:47:21.977Z,15.00
2023-01-21T00:50:24.318Z,14.48
2023-01-21T00:53:29.166Z,16.77
2023-01-21T00:56:31.502Z,12.30
2023-01-21T00:59:34.176Z,14.65
2023-01-21T01:02:36.538Z,14.95
2023-01-21T01:05:39.187Z,15.05
2023-01-21T01:08:42.765Z,14.18
2023-01-21T01:11:45.553Z,13.90
2023-01-21T01:14:48.028Z,14.90
2023-01-21T01:17:50.629Z,12.80
2023-01-21T01:20:53.290Z,16.02
2023-01-21T01:23:57.628Z,14.57
2023-01-21T01:27:00.000Z,15.40
2023-01-21T01:30:02.659Z,14.55
2023-01-21T01:33:05.023Z,13.48
2023-01-21T01:36:14.099Z,14.25
2023-01-21T01:39:16.462Z,14.10
2023-01-21T01:42:19.115Z,13.17
2023-01-21T01:45:22.069Z,15.85
2023-01-21T01:48:31.224Z,13.55
2023-01-21T01:51:43.027Z,14.93
2023-01-21T01:54:53.869Z,12.73
2023-01-21T01:57:57.167Z,12.27
2023-01-21T02:01:00.220Z,12.27
2023-01-21T02:04:08.303Z,12.50
2023-01-21T02:07:11.245Z,12.48
2023-01-21T02:10:15.358Z,11.70
2023-01-21T02:13:18.270Z,12.07
2023-01-21T02:16:51.946Z,12.02
2023-01-21T02:20:19.525Z,11.25
2023-01-21T02:23:50.995Z,11.93
2023-01-21T02:26:53.546Z,10.95
2023-01-21T02:30:20.216Z,10.67
2023-01-21T02:33:22.773Z,9.98
2023-01-21T02:36:37.388Z,10.48
2023-01-21T02:40:06.288Z,10.77
2023-01-21T02:43:18.494Z,10.60
2023-01-21T02:46:51.921Z,11.47
2023-01-21T02:50:08.671Z,10.88
2023-01-21T02:53:28.103Z,10.52
2023-01-21T02:56:30.426Z,10.93
2023-01-21T02:59:33.774Z,10.38
2023-01-21T03:03:00.465Z,10.17
2023-01-21T03:06:21.916Z,10.52
2023-01-21T03:09:28.393Z,10.70
2023-01-21T03:12:36.115Z,10.15
2023-01-21T03:16:12.719Z,9.52
2023-01-21T03:19:19.580Z,9.37
2023-01-21T03:22:26.358Z,8.88
2023-01-21T03:25:30.836Z,9.52
2023-01-21T03:28:36.435Z,8.70
2023-01-21T03:31:41.656Z,10.15
2023-01-21T03:34:48.681Z,8.83
2023-01-21T03:38:21.057Z,8.60
2023-01-21T03:41:32.137Z,7.82
2023-01-21T03:44:35.469Z,8.45
2023-01-21T03:47:39.210Z,8.43
2023-01-21T03:50:48.358Z,8.07
2023-01-21T03:53:58.094Z,8.48
2023-01-21T03:57:00.710Z,8.73
2023-01-21T04:00:04.704Z,9.32
2023-01-21T04:03:06.841Z,9.18
2023-01-21T04:06:15.883Z,8.73
2023-01-21T04:09:18.213Z,8.90
2023-01-21T04:12:20.840Z,8.93
2023-01-21T04:15:23.157Z,8.77
2023-01-21T04:18:25.821Z,8.88
2023-01-21T04:21:28.233Z,8.60
2023-01-21T04:24:32.130Z,8.43
2023-01-21T04:27:35.576Z,9.65
2023-01-21T04:30:38.246Z,10.18
2023-01-21T04:33:40.649Z,9.25
2023-01-21T04:36:43.271Z,9.47
2023-01-21T04:39:45.696Z,9.52
2023-01-21T04:42:48.457Z,8.65
2023-01-21T04:45:51.054Z,9.18
2023-01-21T04:48:53.650Z,8.25
2023-01-21T04:51:56.002Z,8.60
2023-01-21T04:54:58.592Z,9.32
2023-01-21T04:58:00.897Z,8.85
2023-01-21T05:01:03.634Z,9.95
2023-01-21T05:04:05.997Z,8.80
2023-01-21T05:07:09.182Z,8.73
2023-01-21T05:10:16.637Z,8.40
2023-01-21T05:13:19.532Z,8.60
2023-01-21T05:16:22.154Z,9.27
2023-01-21T05:19:24.939Z,9.43
2023-01-21T05:22:27.307Z,9.87
2023-01-21T05:25:29.982Z,9.27
2023-01-21T05:28:32.377Z,9.07
2023-01-21T05:31:35.522Z,9.30
2023-01-21T05:34:37.924Z,8.60
2023-01-21T05:37:40.564Z,9.50
2023-01-21T05:40:42.952Z,9.32
2023-01-21T05:43:45.832Z,9.93
2023-01-21T05:46:48.191Z,9.73
2023-01-21T05:49:50.819Z,10.05
2023-01-21T05:52:53.198Z,9.27
2023-01-21T05:55:56.691Z,9.35
2023-01-21T05:58:59.095Z,9.15
2023-01-21T06:02:01.766Z,9.60
2023-01-21T06:05:04.732Z,10.05
2023-01-21T06:08:07.468Z,10.50
2023-01-21T06:11:10.099Z,9.60
2023-01-21T06:14:12.537Z,9.98
2023-01-21T06:17:15.173Z,11.00
2023-01-21T06:20:18.067Z,10.35
2023-01-21T06:23:21.007Z,10.90
2023-01-21T06:26:25.004Z,11.12
2023-01-21T06:29:28.757Z,11.57
2023-01-21T06:32:31.102Z,12.02
2023-01-21T06:35:33.779Z,12.68
2023-01-21T06:38:37.381Z,12.97
2023-01-21T06:41:40.122Z,13.35
2023-01-21T06:44:42.391Z,12.37
2023-01-21T06:47:45.529Z,12.48
2023-01-21T06:50:47.961Z,13.02
2023-01-21T06:53:50.670Z,11.60
2023-01-21T06:56:53.126Z,11.50
2023-01-21T06:59:55.896Z,12.02
2023-01-21T07:02:58.988Z,12.88
2023-01-21T07:06:01.683Z,11.80
2023-01-21T07:09:05.356Z,13.87
2023-01-21T07:12:08.157Z,14.05
2023-01-21T07:15:10.619Z,12.85
2023-01-21T07:18:13.217Z,12.75
2023-01-21T07:21:15.577Z,12.05
2023-01-21T07:24:18.298Z,12.20
2023-01-21T07:27:21.803Z,13.15
2023-01-21T07:30:24.465Z,13.50
2023-01-21T07:33:27.370Z,11.15
2023-01-21T07:36:30.016Z,10.93
2023-01-21T07:39:32.490Z,10.87
2023-01-21T07:42:35.230Z,11.93
2023-01-21T07:45:37.964Z,10.60
2023-01-21T07:48:40.978Z,10.57
2023-01-21T07:51:46.931Z,11.25
2023-01-21T07:54:49.676Z,10.47
2023-01-21T07:57:52.131Z,10.90
2023-01-21T08:00:54.935Z,11.73
2023-01-21T08:03:58.558Z,10.57
2023-01-21T08:07:02.021Z,12.55
2023-01-21T08:10:05.021Z,12.27
2023-01-21T08:13:08.030Z,12.52
2023-01-21T08:16:12.639Z,11.18
2023-01-21T08:19:14.973Z,11.63
2023-01-21T08:22:17.670Z,11.35
2023-01-21T08:25:20.058Z,11.17
2023-01-21T08:28:23.351Z,10.20
2023-01-21T08:31:25.711Z,10.15
2023-01-21T08:34:28.636Z,11.68
2023-01-21T08:37:31.048Z,11.30
2023-01-21T08:40:33.744Z,11.37
2023-01-21T08:43:36.584Z,11.18
2023-01-21T08:46:39.321Z,12.30
2023-01-21T08:49:41.648Z,10.52
2023-01-21T08:52:51.817Z,9.57
2023-01-21T08:55:57.885Z,9.27
2023-01-21T08:59:02.537Z,10.07
2023-01-21T09:02:05.573Z,9.88
2023-01-21T09:05:08.480Z,10.90
2023-01-21T09:08:11.167Z,10.55
2023-01-21T09:11:14.056Z,10.73
2023-01-21T09:14:16.425Z,11.85
2023-01-21T09:17:19.772Z,10.73
2023-01-21T09:20:22.267Z,11.60
2023-01-21T09:23:25.105Z,10.05
2023-01-21T09:26:28.018Z,11.00
2023-01-21T09:29:30.808Z,10.05
2023-01-21T09:32:33.500Z,10.38
2023-01-21T09:35:36.084Z,10.38
2023-01-21T09:38:38.409Z,11.32
2023-01-21T09:41:49.761Z,12.90
2023-01-21T09:44:54.829Z,9.65
2023-01-21T09:47:58.781Z,11.50
2023-01-21T09:51:12.101Z,12.32
2023-01-21T09:54:41.064Z,11.57
2023-01-21T09:57:46.686Z,11.17
2023-01-21T10:00:49.270Z,11.18
2023-01-21T10:03:59.363Z,12.00
2023-01-21T10:07:34.048Z,10.43
2023-01-21T10:10:54.479Z,11.27
2023-01-21T10:14:15.745Z,11.97
2023-01-21T10:17:47.574Z,9.55
2023-01-21T10:20:52.711Z,12.07
2023-01-21T10:24:06.871Z,11.80
2023-01-21T10:27:16.742Z,11.73
2023-01-21T10:30:24.006Z,10.90
2023-01-21T10:33:30.596Z,11.20
2023-01-21T10:36:57.294Z,12.40
2023-01-21T10:40:43.881Z,11.00
2023-01-21T10:43:57.525Z,10.25
2023-01-21T10:47:05.968Z,11.63
2023-01-21T10:50:22.801Z,11.30
2023-01-21T10:54:03.199Z,12.25
2023-01-21T10:57:33.363Z,10.75
2023-01-21T11:00:43.949Z,11.60
2023-01-21T11:03:51.377Z,9.90
2023-01-21T11:07:02.727Z,10.82
2023-01-21T11:10:07.260Z,10.18
2023-01-21T11:13:13.592Z,9.98
2023-01-21T11:16:34.887Z,10.52
2023-01-21T11:19:37.216Z,11.37
2023-01-21T11:22:43.683Z,10.63
2023-01-21T11:25:49.056Z,10.80
2023-01-21T11:29:09.983Z,9.80
2023-01-21T11:32:19.642Z,10.88
2023-01-21T11:35:23.563Z,10.83
2023-01-21T11:38:35.661Z,11.35
2023-01-21T11:41:38.565Z,11.43
2023-01-21T11:44:54.270Z,11.93
2023-01-21T11:47:58.096Z,13.02
2023-01-21T11:51:07.602Z,12.23
2023-01-21T11:54:13.306Z,13.05
2023-01-21T11:57:28.001Z,12.52
2023-01-21T12:00:33.751Z,11.52
2023-01-21T12:03:42.912Z,10.95
2023-01-21T12:06:48.592Z,11.43
2023-01-21T12:10:02.752Z,11.32
2023-01-21T12:13:20.315Z,10.63
2023-01-21T12:16:28.751Z,11.88
2023-01-21T12:19:56.898Z,10.10
2023-01-21T12:23:12.944Z,8.47
2023-01-21T12:26:33.429Z,9.63
2023-01-21T12:29:54.568Z,8.88
2023-01-21T12:33:21.094Z,8.07
2023-01-21T12:36:33.215Z,8.45
2023-01-21T12:39:40.389Z,8.93
2023-01-21T12:42:48.577Z,9.15
2023-01-21T12:45:56.477Z,10.93
2023-01-21T12:49:04.842Z,10.45
2023-01-21T12:52:19.149Z,9.50
2023-01-21T12:55:50.108Z,8.97
2023-01-21T12:59:08.382Z,8.90
2023-01-21T13:02:22.379Z,8.73
2023-01-21T13:05:35.183Z,9.05
2023-01-21T13:08:58.682Z,9.45
2023-01-21T13:12:26.041Z,9.40
2023-01-21T13:15:33.203Z,8.80
2023-01-21T13:18:45.652Z,9.10
2023-01-21T13:22:13.434Z,9.05
2023-01-21T13:25:28.280Z,9.35
2023-01-21T13:28:46.024Z,10.07
2023-01-21T13:32:15.590Z,8.38
2023-01-21T13:35:36.466Z,9.30
2023-01-21T13:38:47.938Z,8.57
2023-01-21T13:42:18.681Z,9.48
2023-01-21T13:45:25.212Z,8.30
2023-01-21T13:48:30.298Z,8.73
2023-01-21T13:51:41.749Z,9.95
2023-01-21T13:54:50.464Z,9.85
2023-01-21T13:58:15.431Z,8.23
2023-01-21T14:01:24.571Z,8.10
2023-01-21T14:04:41.069Z,8.05
2023-01-21T14:07:58.957Z,8.65
2023-01-21T14:11:10.194Z,9.45
2023-01-21T14:14:37.041Z,8.23
2023-01-21T14:17:56.588Z,8.67
2023-01-21T14:21:27.300Z,8.30
2023-01-21T14:24:44.872Z,7.87
2023-01-21T14:28:05.137Z,7.55
2023-01-21T14:31:20.109Z,7.47
2023-01-21T14:34:27.461Z,7.67
2023-01-21T14:37:34.097Z,8.52
2023-01-21T14:40:45.515Z,8.07
2023-01-21T14:43:51.071Z,7.95
2023-01-21T14:47:14.854Z,8.45
2023-01-21T14:50:48.329Z,7.30
2023-01-21T14:53:57.109Z,7.22
2023-01-21T14:57:13.823Z,6.47
2023-01-21T15:00:25.541Z,7.30
2023-01-21T15:03:33.371Z,7.37
2023-01-21T15:06:39.704Z,6.10
2023-01-21T15:09:47.072Z,6.05
2023-01-21T15:12:58.822Z,6.05
2023-01-21T15:16:32.622Z,5.60
2023-01-21T15:19:35.972Z,6.68
2023-01-21T15:22:40.971Z,5.93
2023-01-21T15:26:11.562Z,6.30
2023-01-21T15:29:36.811Z,6.43
2023-01-21T15:32:45.070Z,6.30
2023-01-21T15:35:48.237Z,6.35
2023-01-21T15:38:57.369Z,5.90
2023-01-21T15:42:06.148Z,6.22
2023-01-21T15:45:24.148Z,7.62
2023-01-21T15:48:44.504Z,7.68
2023-01-21T15:51:52.939Z,8.00
2023-01-21T15:55:15.711Z,8.90
2023-01-21T15:58:35.835Z,8.32
2023-01-21T16:01:40.084Z,8.85
2023-01-21T16:05:10.639Z,8.85
2023-01-21T16:08:31.634Z,10.30
2023-01-21T16:11:38.136Z,8.57
2023-01-21T16:14:58.069Z,7.72
2023-01-21T16:18:22.206Z,8.57
2023-01-21T16:21:30.241Z,8.43
2023-01-21T16:24:37.913Z,7.87
2023-01-21T16:27:46.039Z,7.23
2023-01-21T16:30:57.579Z,7.53
2023-01-21T16:34:00.113Z,8.10
2023-01-21T16:37:06.233Z,7.10
2023-01-21T16:40:08.595Z,7.25
2023-01-21T16:43:22.119Z,7.50
2023-01-21T16:46:28.335Z,8.10
2023-01-21T16:49:31.065Z,6.90
2023-01-21T16:52:33.919Z,7.12
2023-01-21T16:55:45.454Z,6.93
2023-01-21T16:58:47.878Z,6.77
2023-01-21T17:01:51.216Z,5.60
2023-01-21T17:04:58.928Z,6.68
2023-01-21T17:08:04.114Z,5.95
2023-01-21T17:11:11.906Z,6.28
2023-01-21T17:14:25.074Z,6.77
2023-01-21T17:17:32.714Z,6.35
2023-01-21T17:20:35.710Z,7.22
2023-01-21T17:23:52.541Z,9.05
2023-01-21T17:27:10.204Z,7.45
2023-01-21T17:30:34.693Z,7.10
2023-01-21T17:33:37.844Z,6.40
2023-01-21T17:36:42.171Z,7.30
2023-01-21T17:39:50.851Z,7.20
2023-01-21T17:42:53.762Z,7.97
2023-01-21T17:45:57.409Z,6.90
2023-01-21T17:49:14.764Z,6.85
2023-01-21T17:52:20.799Z,7.87
2023-01-21T17:55:28.529Z,7.07
2023-01-21T17:58:41.776Z,7.97
2023-01-21T18:01:44.270Z,7.93
2023-01-21T18:04:47.238Z,10.00
2023-01-21T18:07:50.649Z,8.23
2023-01-21T18:10:53.425Z,7.80
2023-01-21T18:13:55.887Z,7.72
2023-01-21T18:16:58.691Z,8.00
2023-01-21T18:20:01.074Z,7.70
2023-01-21T18:23:03.848Z,8.13
2023-01-21T18:26:13.072Z,9.55
2023-01-21T18:29:17.249Z,7.32
2023-01-21T18:32:19.700Z,7.77
2023-01-21T18:35:27.370Z,8.23
2023-01-21T18:38:31.197Z,7.62
2023-01-21T18:41:35.329Z,8.50
2023-01-21T18:44:37.761Z,10.10
2023-01-21T18:47:40.437Z,9.17
2023-01-21T18:50:42.985Z,9.90
2023-01-21T18:53:45.958Z,8.38
2023-01-21T18:56:48.440Z,9.60
2023-01-21T18:59:51.075Z,8.90
2023-01-21T19:02:55.361Z,9.40
2023-01-21T19:05:59.050Z,8.18
2023-01-21T19:09:01.481Z,8.38
2023-01-21T19:12:04.518Z,9.18
2023-01-21T19:15:10.421Z,8.23
2023-01-21T19:18:15.666Z,9.10
2023-01-21T19:21:17.967Z,8.60
2023-01-21T19:24:20.591Z,8.18
2023-01-21T19:27:27.939Z,8.15
2023-01-21T19:30:32.530Z,8.30
2023-01-21T19:33:34.909Z,8.30
2023-01-21T19:36:39.282Z,7.03
2023-01-21T19:39:41.909Z,8.15
2023-01-21T19:42:44.807Z,7.80
2023-01-21T19:45:48.211Z,7.07
2023-01-21T19:48:53.578Z,7.40
2023-01-21T19:51:55.945Z,7.25
2023-01-21T19:54:58.657Z,8.13
2023-01-21T19:58:03.793Z,7.87
2023-01-21T20:01:06.540Z,8.35
2023-01-21T20:04:09.415Z,7.90
2023-01-21T20:07:14.953Z,8.35
2023-01-21T20:10:26.539Z,7.55
2023-01-21T20:13:32.241Z,7.50
2023-01-21T20:16:47.749Z,7.60
2023-01-21T20:19:50.095Z,7.90
2023-01-21T20:22:53.360Z,7.93
2023-01-21T20:25:58.562Z,7.60
2023-01-21T20:29:03.720Z,7.47
2023-01-21T20:32:06.945Z,7.62
2023-01-21T20:35:10.145Z,7.40
2023-01-21T20:38:15.029Z,7.55
2023-01-21T20:41:17.815Z,7.53
2023-01-21T20:44:20.477Z,8.50
2023-01-21T20:47:32.647Z,7.80
2023-01-21T20:50:41.132Z,8.13
2023-01-21T20:53:43.880Z,8.10
2023-01-21T20:56:46.330Z,8.68
2023-01-21T20:59:49.032Z,8.25
2023-01-21T21:02:51.811Z,7.82
2023-01-21T21:05:54.461Z,8.73
2023-01-21T21:08:56.897Z,8.75
2023-01-21T21:11:59.514Z,8.40
2023-01-21T21:15:01.894Z,8.60
2023-01-21T21:18:05.617Z,9.35
2023-01-21T21:21:10.317Z,8.27
2023-01-21T21:24:12.967Z,9.93
2023-01-21T21:27:15.551Z,8.48
2023-01-21T21:30:21.422Z,7.82
2023-01-21T21:33:23.974Z,8.73
2023-01-21T21:36:26.794Z,7.03
2023-01-21T21:39:29.142Z,8.65
2023-01-21T21:42:50.775Z,8.43
2023-01-21T21:46:11.857Z,8.07
2023-01-21T21:49:14.690Z,8.20
2023-01-21T21:52:17.806Z,8.07
2023-01-21T21:55:20.438Z,7.70
2023-01-21T21:58:22.792Z,8.70
2023-01-21T22:01:30.421Z,8.60
2023-01-21T22:04:33.756Z,8.38
2023-01-21T22:07:38.287Z,7.20
2023-01-21T22:10:40.963Z,6.75
2023-01-21T22:13:45.225Z,7.85
2023-01-21T22:16:50.472Z,8.05
2023-01-21T22:19:52.838Z,7.93
2023-01-21T22:22:55.447Z,7.00
2023-01-21T22:26:00.252Z,8.02
2023-01-21T22:29:04.174Z,7.45
2023-01-21T22:32:06.733Z,7.53
2023-01-21T22:35:09.664Z,8.23
2023-01-21T22:38:12.044Z,7.13
2023-01-21T22:41:17.168Z,7.82
2023-01-21T22:44:19.561Z,7.22
2023-01-21T22:47:22.312Z,8.05
2023-01-21T22:50:24.694Z,7.35
2023-01-21T22:53:28.033Z,6.67
2023-01-21T22:56:49.954Z,6.72
2023-01-21T22:59:53.178Z,6.70
2023-01-21T23:02:55.533Z,6.10
2023-01-21T23:06:07.072Z,7.20
2023-01-21T23:09:11.497Z,6.17
2023-01-21T23:12:18.839Z,5.78
2023-01-21T23:15:22.686Z,5.90
2023-01-21T23:18:27.694Z,5.85
2023-01-21T23:21:30.053Z,6.30
2023-01-21T23:24:33.595Z,5.97
2023-01-21T23:27:35.963Z,6.30
2023-01-21T23:30:38.824Z,6.05
2023-01-21T23:33:42.292Z,5.35
2023-01-21T23:36:44.919Z,5.57
2023-01-21T23:39:47.339Z,6.83
2023-01-21T23:42:50.714Z,5.85
2023-01-21T23:45:54.213Z,5.80
2023-01-21T23:48:56.902Z,5.62
2023-01-21T23:51:59.535Z,5.85
2023-01-21T23:55:02.765Z,6.03
2023-01-21T23:58:05.115Z,6.00
